Time;durP1;ratioP1;P1;durP2;ratioP2;P2;SDS_P1;SDS_P2;PMS_P1;PMS_P2;Temp;Humidity;BMP_temperature;BMP_pressure;BME280_temperature;BME280_humidity;BME280_pressure;Samples;Min_cycle;Max_cycle;Signal;HPM_P1;HPM_P2
2022/08/28 00:00:40;;;;;;;3.67;3.38;;;19.00;99.90;;;;;;5061875;28;20225;-77
2022/08/28 00:03:08;;;;;;;3.78;3.47;;;19.00;99.90;;;;;;5059375;28;20202;-79
2022/08/28 00:05:35;;;;;;;3.85;3.55;;;19.00;99.90;;;;;;5059635;28;20230;-77
2022/08/28 00:08:03;;;;;;;3.30;3.10;;;19.00;99.90;;;;;;5063349;28;20231;-77
2022/08/28 00:10:32;;;;;;;3.53;3.22;;;19.00;99.90;;;;;;5059098;28;20273;-77
2022/08/28 00:12:59;;;;;;;3.28;3.00;;;19.00;99.90;;;;;;5057654;28;20233;-73
2022/08/28 00:15:29;;;;;;;3.38;3.17;;;19.00;99.90;;;;;;5065517;28;20227;-77
2022/08/28 00:18:00;;;;;;;3.60;3.30;;;19.10;99.90;;;;;;5063291;28;20257;-77
2022/08/28 00:20:30;;;;;;;3.25;3.05;;;19.10;99.90;;;;;;5061728;28;20251;-78
2022/08/28 00:22:58;;;;;;;3.60;3.30;;;19.00;99.90;;;;;;5059538;28;20263;-77
2022/08/28 00:25:27;;;;;;;3.72;3.42;;;19.00;99.90;;;;;;5054332;28;20230;-77
2022/08/28 00:27:56;;;;;;;3.53;3.22;;;19.00;99.90;;;;;;5056685;28;20226;-77
2022/08/28 00:30:26;;;;;;;4.00;3.70;;;19.00;99.90;;;;;;5059766;28;20222;-77
2022/08/28 00:32:55;;;;;;;4.00;3.70;;;19.00;99.90;;;;;;5055687;28;20204;-78
2022/08/28 00:35:23;;;;;;;4.03;3.72;;;18.90;99.90;;;;;;5054096;28;20618;-77
2022/08/28 00:37:51;;;;;;;3.80;3.50;;;19.00;99.90;;;;;;5059382;28;20219;-78
2022/08/28 00:40:20;;;;;;;3.50;3.22;;;19.00;99.90;;;;;;5054756;28;20222;-78
2022/08/28 00:42:48;;;;;;;3.72;3.42;;;19.00;99.90;;;;;;5054856;28;20775;-77
2022/08/28 00:45:17;;;;;;;3.60;3.30;;;19.00;99.90;;;;;;5056849;28;20285;-78
2022/08/28 00:47:45;;;;;;;3.10;2.90;;;19.10;99.90;;;;;;5058753;28;20219;-78
2022/08/28 00:50:17;;;;;;;3.63;3.33;;;19.10;99.90;;;;;;5066013;28;20214;-77
2022/08/28 00:52:45;;;;;;;3.10;2.90;;;19.10;99.90;;;;;;5064551;28;20226;-75
2022/08/28 00:55:15;;;;;;;3.30;3.10;;;19.10;99.90;;;;;;5054336;28;20245;-76
2022/08/28 00:57:48;;;;;;;3.90;3.60;;;19.10;99.90;;;;;;5065347;28;20214;-78
2022/08/28 01:00:19;;;;;;;4.20;3.80;;;19.00;99.90;;;;;;5059399;28;20210;-77
2022/08/28 01:02:46;;;;;;;3.63;3.33;;;19.00;99.90;;;;;;5059417;28;20195;-77
2022/08/28 01:05:16;;;;;;;4.38;3.58;;;19.00;99.90;;;;;;5060984;28;20220;-77
2022/08/28 01:07:45;;;;;;;3.40;3.20;;;19.00;99.90;;;;;;5061062;28;20215;-77
2022/08/28 01:10:17;;;;;;;3.80;3.50;;;18.90;99.90;;;;;;5059812;28;20223;-77
2022/08/28 01:12:45;;;;;;;3.80;3.50;;;18.90;99.90;;;;;;5063442;28;20198;-77
2022/08/28 01:15:16;;;;;;;3.80;3.50;;;18.90;99.90;;;;;;5059681;28;20218;-77
2022/08/28 01:17:48;;;;;;;3.97;3.60;;;18.90;99.90;;;;;;5059674;28;20230;-76
2022/08/28 01:20:19;;;;;;;3.45;3.22;;;18.90;99.90;;;;;;5063863;28;20222;-77
2022/08/28 01:22:56;;;;;;;3.67;3.38;;;18.90;99.90;;;;;;5063526;28;20195;-78
2022/08/28 01:25:29;;;;;;;3.65;3.35;;;18.90;99.90;;;;;;5060207;28;20226;-77
2022/08/28 01:27:57;;;;;;;3.15;2.85;;;18.90;99.90;;;;;;5061334;28;20207;-77
2022/08/28 01:30:27;;;;;;;4.03;3.72;;;18.90;99.90;;;;;;5065599;28;20223;-77
2022/08/28 01:32:56;;;;;;;4.25;3.95;;;18.90;99.90;;;;;;5061477;28;20277;-77
2022/08/28 01:35:27;;;;;;;4.00;3.70;;;18.90;99.90;;;;;;5056801;28;20219;-79
2022/08/28 01:37:55;;;;;;;4.05;3.75;;;18.90;99.90;;;;;;5063707;28;20207;-78
2022/08/28 01:40:27;;;;;;;4.00;3.65;;;18.90;99.90;;;;;;5043540;28;20213;-77
2022/08/28 01:42:55;;;;;;;4.10;3.80;;;18.90;99.90;;;;;;5057563;28;20190;-78
2022/08/28 01:45:25;;;;;;;3.70;3.40;;;18.90;99.90;;;;;;5056632;28;20253;-77
2022/08/28 01:47:52;;;;;;;3.97;3.67;;;18.90;99.90;;;;;;5058015;28;20219;-78
2022/08/28 01:50:20;;;;;;;3.78;3.47;;;18.90;99.90;;;;;;5054818;28;20233;-77
2022/08/28 01:52:47;;;;;;;3.30;3.10;;;18.90;99.90;;;;;;5061245;28;20218;-79
2022/08/28 01:55:15;;;;;;;3.17;2.97;;;18.90;99.90;;;;;;5059668;28;20225;-77
2022/08/28 01:57:49;;;;;;;3.60;3.30;;;18.90;99.90;;;;;;5063222;28;20225;-78
2022/08/28 02:00:24;;;;;;;3.47;3.20;;;18.90;99.90;;;;;;5063918;28;20223;-77
2022/08/28 02:02:51;;;;;;;3.17;2.97;;;18.90;99.90;;;;;;5058591;28;20194;-79
2022/08/28 02:05:19;;;;;;;3.38;3.17;;;18.90;99.90;;;;;;5059461;28;20226;-77
2022/08/28 02:07:46;;;;;;;4.60;3.03;;;18.90;99.90;;;;;;5061812;28;20222;-77
2022/08/28 02:10:13;;;;;;;3.30;3.10;;;18.90;99.90;;;;;;5059479;28;20218;-77
2022/08/28 02:12:42;;;;;;;3.20;3.00;;;18.90;99.90;;;;;;5057831;28;20206;-78
2022/08/28 02:15:12;;;;;;;2.90;2.70;;;18.90;99.90;;;;;;5059869;28;20238;-77
2022/08/28 02:17:39;;;;;;;3.45;3.25;;;18.90;99.90;;;;;;5079464;22;20226;-75
2022/08/28 02:20:07;;;;;;;3.33;3.03;;;18.90;99.90;;;;;;5054820;28;20668;-76
2022/08/28 02:22:36;;;;;;;3.05;2.85;;;18.90;99.90;;;;;;5063243;28;20248;-76
2022/08/28 02:25:04;;;;;;;3.10;2.90;;;18.90;99.90;;;;;;5058999;28;20225;-76
2022/08/28 02:27:32;;;;;;;3.00;2.80;;;18.90;99.90;;;;;;5066165;28;20285;-75
2022/08/28 02:29:59;;;;;;;3.38;2.95;;;18.90;99.90;;;;;;5050472;28;20229;-75
2022/08/28 02:32:28;;;;;;;3.40;3.17;;;18.90;99.90;;;;;;5051274;28;20205;-76
2022/08/28 02:34:56;;;;;;;3.83;3.50;;;18.90;99.90;;;;;;5048608;28;20215;-75
2022/08/28 02:37:24;;;;;;;3.65;3.35;;;18.80;99.90;;;;;;5048925;28;20195;-75
2022/08/28 02:39:55;;;;;;;3.97;3.67;;;18.80;99.90;;;;;;5047240;28;20218;-75
2022/08/28 02:42:22;;;;;;;3.47;3.28;;;18.80;99.90;;;;;;5049781;28;20225;-76
2022/08/28 02:44:49;;;;;;;3.78;3.47;;;18.70;99.90;;;;;;5048491;28;20215;-76
2022/08/28 02:47:17;;;;;;;3.25;3.03;;;18.70;99.90;;;;;;5050081;28;20673;-75
2022/08/28 02:49:45;;;;;;;3.30;3.00;;;18.80;99.90;;;;;;5050463;28;20816;-75
2022/08/28 02:52:12;;;;;;;3.67;3.38;;;18.70;99.90;;;;;;5049539;28;20249;-74
2022/08/28 02:54:40;;;;;;;4.20;3.58;;;18.80;99.90;;;;;;5048566;28;20222;-75
2022/08/28 02:57:08;;;;;;;4.10;3.80;;;18.70;99.90;;;;;;5049141;28;20203;-75
2022/08/28 02:59:35;;;;;;;3.88;3.50;;;18.70;99.90;;;;;;5048380;28;20261;-75
2022/08/28 03:02:05;;;;;;;3.50;3.30;;;18.70;99.90;;;;;;5051008;28;20198;-76
2022/08/28 03:04:32;;;;;;;3.20;3.00;;;18.70;99.90;;;;;;5050633;28;20245;-75
2022/08/28 03:07:01;;;;;;;3.38;3.17;;;18.70;99.90;;;;;;5047060;28;20203;-75
2022/08/28 03:09:28;;;;;;;3.72;3.42;;;18.60;99.90;;;;;;5048985;28;20237;-76
2022/08/28 03:11:55;;;;;;;3.60;3.30;;;18.60;99.90;;;;;;5048466;28;20201;-76
2022/08/28 03:14:25;;;;;;;3.60;3.30;;;18.60;99.90;;;;;;5046792;28;20206;-75
2022/08/28 03:16:52;;;;;;;3.50;3.20;;;18.60;99.90;;;;;;5049853;28;20198;-76
2022/08/28 03:19:19;;;;;;;3.28;3.08;;;18.70;99.90;;;;;;5050821;28;20280;-76
2022/08/28 03:21:46;;;;;;;3.33;3.13;;;18.70;99.90;;;;;;5050240;28;20198;-76
2022/08/28 03:24:15;;;;;;;3.42;3.13;;;18.60;99.90;;;;;;5046529;28;20191;-76
2022/08/28 03:26:42;;;;;;;3.65;3.35;;;18.60;99.90;;;;;;5048612;28;20203;-75
2022/08/28 03:29:09;;;;;;;3.20;2.90;;;18.60;99.90;;;;;;5048192;28;20219;-75
2022/08/28 03:31:37;;;;;;;3.80;3.50;;;18.60;99.90;;;;;;5050650;28;20199;-75
2022/08/28 03:34:05;;;;;;;3.90;3.60;;;18.60;99.90;;;;;;5049511;28;20206;-75
2022/08/28 03:36:32;;;;;;;4.00;3.70;;;18.60;99.90;;;;;;5044884;28;20280;-75
2022/08/28 03:39:02;;;;;;;3.50;3.20;;;18.70;99.90;;;;;;5049548;28;20215;-75
2022/08/28 03:41:31;;;;;;;4.13;3.83;;;18.70;99.90;;;;;;5045387;28;20729;-75
2022/08/28 03:44:00;;;;;;;3.90;3.60;;;18.70;99.90;;;;;;5050465;28;20238;-76
2022/08/28 03:46:31;;;;;;;3.67;3.38;;;18.70;99.90;;;;;;5048868;28;20226;-75
2022/08/28 03:48:59;;;;;;;4.00;3.70;;;18.60;99.90;;;;;;5049638;28;20222;-75
2022/08/28 03:51:29;;;;;;;4.32;3.92;;;18.60;99.90;;;;;;5049226;28;20223;-75
2022/08/28 03:53:57;;;;;;;3.85;3.55;;;18.60;99.90;;;;;;5048350;28;20195;-76
2022/08/28 03:56:26;;;;;;;3.83;3.53;;;18.60;99.90;;;;;;5045808;28;20218;-76
2022/08/28 03:58:57;;;;;;;3.90;3.60;;;18.60;99.90;;;;;;5047165;28;20215;-75
2022/08/28 04:01:25;;;;;;;3.40;3.20;;;18.60;99.90;;;;;;5042077;28;20247;-76
2022/08/28 04:03:52;;;;;;;3.80;3.50;;;18.60;99.90;;;;;;5044012;28;20199;-75
2022/08/28 04:06:20;;;;;;;3.35;3.05;;;18.60;99.90;;;;;;5047874;28;20219;-75
2022/08/28 04:08:47;;;;;;;4.13;3.83;;;18.60;99.90;;;;;;5048745;28;20219;-77
2022/08/28 04:11:15;;;;;;;4.15;3.85;;;18.60;99.90;;;;;;5047137;28;20223;-75
2022/08/28 04:13:42;;;;;;;3.55;3.33;;;18.60;99.90;;;;;;5047560;28;20195;-76
2022/08/28 04:16:16;;;;;;;3.50;3.30;;;18.50;99.90;;;;;;5047896;28;20218;-75
2022/08/28 04:18:45;;;;;;;3.65;3.35;;;18.50;99.90;;;;;;5043826;28;20230;-76
2022/08/28 04:21:14;;;;;;;3.83;3.53;;;18.50;99.90;;;;;;5046168;28;20219;-75
2022/08/28 04:23:42;;;;;;;3.97;3.67;;;18.50;99.90;;;;;;5046475;28;20241;-75
2022/08/28 04:26:11;;;;;;;3.40;3.20;;;18.50;99.90;;;;;;5045524;28;20688;-75
2022/08/28 04:28:38;;;;;;;4.10;3.80;;;18.40;99.90;;;;;;5044677;28;20214;-76
2022/08/28 04:31:06;;;;;;;3.67;3.38;;;18.40;99.90;;;;;;5046769;28;20223;-75
2022/08/28 04:33:35;;;;;;;3.70;3.40;;;18.40;99.90;;;;;;5047226;28;20191;-75
2022/08/28 04:36:04;;;;;;;3.92;3.63;;;18.40;99.90;;;;;;5044712;28;20736;-76
2022/08/28 04:38:31;;;;;;;3.83;3.53;;;18.40;99.90;;;;;;5047324;28;20221;-76
2022/08/28 04:40:58;;;;;;;3.55;3.35;;;18.40;99.90;;;;;;5044411;28;20222;-76
2022/08/28 04:43:25;;;;;;;3.70;3.47;;;18.30;99.90;;;;;;5046026;28;20195;-75
2022/08/28 04:45:52;;;;;;;3.88;3.58;;;18.30;99.90;;;;;;5046477;28;20215;-76
2022/08/28 04:48:19;;;;;;;3.50;3.20;;;18.30;99.90;;;;;;5045051;28;20226;-74
2022/08/28 04:50:49;;;;;;;3.97;3.67;;;18.30;99.90;;;;;;5042784;28;20225;-76
2022/08/28 04:53:18;;;;;;;3.83;3.53;;;18.30;99.90;;;;;;5047393;28;20214;-75
2022/08/28 04:55:49;;;;;;;3.95;3.65;;;18.30;99.90;;;;;;5047023;28;20219;-76
2022/08/28 04:58:16;;;;;;;4.38;4.05;;;18.30;99.90;;;;;;5048595;28;20260;-75
2022/08/28 05:00:45;;;;;;;3.65;3.35;;;18.30;99.90;;;;;;5049072;28;20215;-76
2022/08/28 05:03:15;;;;;;;3.63;3.33;;;18.30;99.90;;;;;;5048665;28;20206;-75
2022/08/28 05:05:43;;;;;;;3.80;3.50;;;18.40;99.90;;;;;;5049082;28;20701;-75
2022/08/28 05:08:12;;;;;;;4.35;3.97;;;18.40;99.90;;;;;;5046358;28;20258;-75
2022/08/28 05:10:40;;;;;;;4.63;4.30;;;18.40;99.90;;;;;;5043149;28;20219;-76
2022/08/28 05:13:08;;;;;;;4.20;3.90;;;18.40;99.90;;;;;;5043632;28;20229;-75
2022/08/28 05:15:38;;;;;;;4.70;4.30;;;18.40;99.90;;;;;;5045059;28;20626;-75
2022/08/28 05:18:06;;;;;;;3.90;3.60;;;18.40;99.90;;;;;;5045348;28;20248;-76
2022/08/28 05:20:36;;;;;;;3.70;3.40;;;18.40;99.90;;;;;;5043905;28;20215;-75
2022/08/28 05:23:04;;;;;;;4.60;3.55;;;18.40;99.90;;;;;;5045270;28;20306;-75
2022/08/28 05:25:38;;;;;;;4.25;3.95;;;18.50;99.90;;;;;;5044730;28;20599;-76
2022/08/28 05:28:06;;;;;;;4.22;3.90;;;18.50;99.90;;;;;;5043908;28;20272;-76
2022/08/28 05:30:33;;;;;;;3.90;3.60;;;18.60;99.90;;;;;;5045097;28;20750;-76
2022/08/28 05:33:00;;;;;;;4.28;3.88;;;18.80;99.90;;;;;;5043180;28;20210;-75
2022/08/28 05:35:28;;;;;;;4.32;3.92;;;19.00;99.90;;;;;;5046018;28;20211;-75
2022/08/28 05:37:55;;;;;;;4.35;4.05;;;19.30;99.90;;;;;;5045359;28;20297;-75
2022/08/28 05:40:22;;;;;;;4.68;4.28;;;19.70;99.90;;;;;;5044779;28;20215;-75
2022/08/28 05:42:51;;;;;;;4.15;3.85;;;20.00;99.90;;;;;;5045689;28;20202;-75
2022/08/28 05:45:19;;;;;;;5.20;4.80;;;20.30;99.90;;;;;;5047119;28;20704;-75
2022/08/28 05:47:46;;;;;;;4.50;4.20;;;20.50;99.90;;;;;;5047430;28;20229;-75
2022/08/28 05:50:14;;;;;;;5.18;4.75;;;20.70;99.90;;;;;;5043273;28;20226;-75
2022/08/28 05:52:42;;;;;;;5.72;5.22;;;20.90;99.90;;;;;;5047096;28;20207;-75
2022/08/28 05:55:10;;;;;;;4.85;4.45;;;21.10;99.90;;;;;;5045929;28;20284;-76
2022/08/28 05:57:38;;;;;;;6.05;5.55;;;21.40;99.90;;;;;;5047192;28;20278;-76
2022/08/28 06:00:09;;;;;;;5.82;5.32;;;21.60;99.90;;;;;;5043377;28;20284;-76
2022/08/28 06:02:36;;;;;;;5.80;5.32;;;21.60;99.90;;;;;;5043754;28;20195;-75
2022/08/28 06:05:03;;;;;;;5.40;4.97;;;21.30;99.90;;;;;;5044482;28;20230;-75
2022/08/28 06:07:32;;;;;;;7.13;6.43;;;21.00;99.90;;;;;;5046984;28;20210;-75
2022/08/28 06:09:59;;;;;;;8.13;6.00;;;20.70;99.90;;;;;;5042853;28;20677;-75
2022/08/28 06:12:26;;;;;;;6.82;6.20;;;20.40;99.90;;;;;;5045534;28;20199;-76
2022/08/28 06:14:53;;;;;;;6.45;5.78;;;20.30;99.90;;;;;;5043118;28;20218;-76
2022/08/28 06:17:22;;;;;;;6.63;6.10;;;20.30;99.90;;;;;;5046882;28;20195;-75
2022/08/28 06:19:50;;;;;;;7.57;6.88;;;20.50;99.90;;;;;;5043797;28;20240;-76
2022/08/28 06:22:17;;;;;;;6.95;6.35;;;20.70;99.90;;;;;;5044416;28;20284;-75
2022/08/28 06:24:44;;;;;;;6.22;5.72;;;20.90;99.90;;;;;;5041316;28;21249;-76
2022/08/28 06:27:11;;;;;;;6.68;6.10;;;21.20;99.90;;;;;;5043714;28;20199;-76
2022/08/28 06:29:40;;;;;;;7.22;6.53;;;21.50;99.90;;;;;;5046748;28;20219;-76
2022/08/28 06:32:07;;;;;;;8.02;7.25;;;21.80;99.90;;;;;;5047639;28;20772;-76
2022/08/28 06:34:36;;;;;;;7.40;6.70;;;22.00;99.90;;;;;;5049512;28;20223;-76
2022/08/28 06:37:03;;;;;;;6.85;6.25;;;22.10;99.90;;;;;;5046892;28;20199;-75
2022/08/28 06:39:30;;;;;;;7.43;6.53;;;22.20;99.90;;;;;;5048696;28;20226;-75
2022/08/28 06:41:57;;;;;;;7.78;7.18;;;22.30;99.90;;;;;;5048036;28;20195;-75
2022/08/28 06:44:24;;;;;;;7.65;6.93;;;22.50;99.90;;;;;;5045321;28;20289;-75
2022/08/28 06:46:53;;;;;;;7.18;6.55;;;22.60;99.90;;;;;;5044358;28;20191;-75
2022/08/28 06:49:21;;;;;;;7.68;6.88;;;22.80;99.90;;;;;;5043848;28;20225;-74
2022/08/28 06:51:50;;;;;;;7.95;7.28;;;22.80;99.90;;;;;;5047554;28;20202;-75
2022/08/28 06:54:18;;;;;;;8.50;7.72;;;22.80;99.90;;;;;;5046073;28;20198;-75
2022/08/28 06:56:45;;;;;;;8.48;7.60;;;22.80;99.90;;;;;;5046488;28;20195;-75
2022/08/28 06:59:12;;;;;;;7.97;7.18;;;22.90;99.90;;;;;;5047565;28;20272;-75
2022/08/28 07:01:39;;;;;;;8.73;7.93;;;22.90;99.90;;;;;;5045387;28;20202;-75
2022/08/28 07:04:08;;;;;;;9.07;8.18;;;23.10;99.90;;;;;;5047808;28;20209;-76
2022/08/28 07:06:37;;;;;;;8.07;7.38;;;23.20;99.90;;;;;;5048337;28;20243;-76
2022/08/28 07:09:09;;;;;;;8.68;7.82;;;23.30;99.90;;;;;;5046788;28;20225;-76
2022/08/28 07:11:37;;;;;;;8.30;7.53;;;23.60;99.90;;;;;;5047807;28;20228;-75
2022/08/28 07:14:05;;;;;;;7.90;7.20;;;23.60;99.90;;;;;;5044415;28;20195;-76
2022/08/28 07:16:36;;;;;;;9.00;8.20;;;23.90;99.90;;;;;;5045007;28;20276;-75
2022/08/28 07:19:04;;;;;;;8.57;7.78;;;23.90;99.90;;;;;;5049132;28;20223;-76
2022/08/28 07:21:32;;;;;;;8.18;7.40;;;24.00;99.90;;;;;;5042797;28;20280;-75
2022/08/28 07:23:59;;;;;;;9.07;8.23;;;24.00;99.90;;;;;;5048554;28;20253;-76
2022/08/28 07:26:27;;;;;;;9.52;8.23;;;24.00;99.90;;;;;;5045501;28;20222;-75
2022/08/28 07:28:54;;;;;;;10.73;9.73;;;24.00;99.90;;;;;;5045529;28;20895;-77
2022/08/28 07:31:24;;;;;;;9.75;8.75;;;24.00;99.90;;;;;;5045289;28;20654;-76
2022/08/28 07:33:52;;;;;;;9.10;8.27;;;24.10;99.90;;;;;;5047664;28;20198;-76
2022/08/28 07:36:21;;;;;;;9.80;8.80;;;24.10;99.90;;;;;;5046043;28;20215;-75
2022/08/28 07:38:49;;;;;;;9.23;8.32;;;24.10;99.90;;;;;;5047902;28;20222;-75
2022/08/28 07:41:18;;;;;;;9.55;8.57;;;24.20;99.90;;;;;;5048074;28;20864;-75
2022/08/28 07:46:31;;;;;;;9.18;8.30;;;24.40;99.90;;;;;;5048375;28;20225;-75
2022/08/28 07:48:58;;;;;;;9.48;8.63;;;24.40;99.90;;;;;;5047025;28;20215;-74
2022/08/28 07:51:26;;;;;;;9.55;8.55;;;24.60;99.90;;;;;;5043900;28;20242;-74
2022/08/28 07:53:56;;;;;;;8.52;7.80;;;24.20;99.90;;;;;;5048839;28;20606;-76
2022/08/28 07:56:23;;;;;;;8.68;7.95;;;23.80;99.90;;;;;;5043724;28;20246;-76
2022/08/28 07:58:51;;;;;;;8.73;8.00;;;23.40;99.90;;;;;;5049047;28;20226;-75
2022/08/28 08:01:18;;;;;;;9.40;8.38;;;23.20;99.90;;;;;;5043950;28;20697;-76
2022/08/28 08:03:45;;;;;;;8.68;7.18;;;23.20;99.90;;;;;;5045416;28;20223;-75
2022/08/28 08:06:14;;;;;;;9.82;8.95;;;23.60;99.90;;;;;;5039866;28;20273;-76
2022/08/28 08:08:41;;;;;;;9.43;8.10;;;24.00;99.90;;;;;;5044327;28;20217;-76
2022/08/28 08:11:11;;;;;;;8.85;8.05;;;24.30;99.90;;;;;;5045845;28;20221;-75
2022/08/28 08:13:39;;;;;;;8.93;8.15;;;24.70;99.90;;;;;;5042411;28;20203;-76
2022/08/28 08:16:10;;;;;;;8.82;8.02;;;24.70;99.90;;;;;;5045988;28;20223;-77
2022/08/28 08:18:37;;;;;;;9.38;8.57;;;24.70;99.90;;;;;;5041683;28;20254;-76
2022/08/28 08:21:07;;;;;;;8.25;7.50;;;24.60;99.90;;;;;;5079196;22;20290;-78
2022/08/28 08:23:34;;;;;;;7.95;7.25;;;24.60;99.90;;;;;;5057638;28;20209;-78
2022/08/28 08:26:04;;;;;;;8.18;7.47;;;24.70;99.90;;;;;;5054145;28;20231;-77
2022/08/28 08:28:33;;;;;;;8.68;7.88;;;24.80;99.90;;;;;;5057737;28;20237;-77
2022/08/28 08:31:05;;;;;;;7.80;7.10;;;25.00;99.90;;;;;;5050972;28;20223;-77
2022/08/28 08:33:34;;;;;;;7.60;6.82;;;25.20;99.90;;;;;;5054356;28;20198;-77
2022/08/28 08:36:01;;;;;;;7.60;6.90;;;25.20;99.90;;;;;;5059391;28;20225;-77
2022/08/28 08:38:30;;;;;;;7.30;6.70;;;25.30;99.90;;;;;;5053481;28;20195;-77
2022/08/28 08:40:58;;;;;;;7.65;6.93;;;25.30;99.90;;;;;;5060750;28;20843;-76
2022/08/28 08:43:28;;;;;;;7.35;6.75;;;25.40;99.90;;;;;;5060059;28;20195;-78
2022/08/28 08:45:56;;;;;;;8.27;6.40;;;25.50;99.90;;;;;;5053233;28;20230;-78
2022/08/28 08:48:28;;;;;;;7.50;6.80;;;25.50;99.90;;;;;;5050292;28;20202;-78
2022/08/28 08:51:01;;;;;;;6.85;6.25;;;25.50;99.90;;;;;;5048946;28;20229;-76
2022/08/28 08:53:34;;;;;;;6.82;6.15;;;25.50;99.90;;;;;;5040760;28;20191;-77
2022/08/28 08:56:04;;;;;;;6.40;5.80;;;25.60;99.90;;;;;;5043554;28;20231;-77
2022/08/28 08:58:35;;;;;;;7.70;7.10;;;25.70;99.90;;;;;;5044243;28;20258;-78
2022/08/28 09:01:08;;;;;;;6.53;5.93;;;25.70;99.90;;;;;;5051335;28;20230;-77
2022/08/28 09:03:49;;;;;;;7.85;6.97;;;26.00;99.90;;;;;;5057859;28;20675;-75
2022/08/28 09:06:36;;;;;;;7.40;6.65;;;26.30;99.90;;;;;;5053849;28;20219;-76
2022/08/28 09:09:07;;;;;;;6.57;5.97;;;26.30;99.90;;;;;;5053934;28;20194;-77
2022/08/28 09:11:48;;;;;;;5.90;5.50;;;26.30;99.90;;;;;;5055569;28;20227;-77
2022/08/28 09:14:24;;;;;;;6.68;6.07;;;26.40;99.90;;;;;;5059296;28;20199;-75
2022/08/28 09:16:52;;;;;;;7.15;6.55;;;26.40;99.90;;;;;;5052172;28;20206;-76
2022/08/28 09:19:21;;;;;;;6.82;6.22;;;26.40;99.90;;;;;;5048270;28;20190;-78
2022/08/28 09:21:51;;;;;;;6.80;6.20;;;26.50;99.90;;;;;;5054486;28;20708;-78
2022/08/28 09:24:22;;;;;;;7.20;6.50;;;26.50;99.90;;;;;;5048891;28;20259;-76
2022/08/28 09:26:58;;;;;;;5.95;5.45;;;26.60;99.90;;;;;;5060081;28;20213;-76
2022/08/28 09:29:29;;;;;;;6.43;5.82;;;26.90;99.90;;;;;;5058212;28;20191;-77
2022/08/28 09:31:56;;;;;;;5.95;5.47;;;26.90;99.90;;;;;;5057791;28;20222;-76
2022/08/28 09:34:28;;;;;;;6.97;6.30;;;27.00;99.90;;;;;;5059373;28;20225;-77
2022/08/28 09:36:58;;;;;;;6.47;5.95;;;26.90;99.90;;;;;;5061291;28;20261;-78
2022/08/28 09:39:27;;;;;;;6.38;5.88;;;26.70;99.90;;;;;;5054421;28;20195;-77
2022/08/28 09:45:12;;;;;;;6.35;5.85;;;26.80;99.90;;;;;;5060284;28;20233;-77
2022/08/28 09:47:48;;;;;;;5.85;5.35;;;27.10;99.90;;;;;;5059733;28;20199;-77
2022/08/28 09:50:32;;;;;;;6.05;5.55;;;27.00;99.90;;;;;;5059043;28;20214;-77
2022/08/28 09:53:19;;;;;;;6.28;5.78;;;27.00;99.90;;;;;;5060463;28;20202;-77
2022/08/28 09:56:02;;;;;;;6.70;5.50;;;27.10;99.90;;;;;;5062523;28;20225;-77
2022/08/28 09:58:35;;;;;;;6.00;5.50;;;27.40;99.90;;;;;;5062734;28;20259;-76
2022/08/28 10:01:30;;;;;;;5.65;5.22;;;27.50;99.90;;;;;;5050207;28;20223;-76
2022/08/28 10:04:18;;;;;;;6.43;5.93;;;27.50;99.90;;;;;;5048792;28;20476;-76
2022/08/28 10:06:51;;;;;;;5.45;5.05;;;27.40;99.90;;;;;;5046057;28;20223;-76
2022/08/28 10:09:27;;;;;;;6.18;5.68;;;27.40;99.90;;;;;;5042776;28;20200;-75
2022/08/28 10:12:01;;;;;;;5.78;5.28;;;27.50;99.90;;;;;;5043156;28;20223;-76
2022/08/28 10:14:44;;;;;;;5.88;5.35;;;27.50;99.90;;;;;;5049465;28;20241;-76
2022/08/28 10:17:20;;;;;;;6.20;5.60;;;27.60;99.90;;;;;;5056157;28;20202;-75
2022/08/28 10:19:54;;;;;;;5.32;4.82;;;27.60;99.90;;;;;;5057098;28;20519;-75
2022/08/28 10:22:29;;;;;;;5.00;4.68;;;27.60;99.90;;;;;;5053248;28;20195;-77
2022/08/28 10:25:15;;;;;;;6.05;5.53;;;27.70;99.90;;;;;;5047627;28;20215;-77
2022/08/28 10:27:55;;;;;;;5.53;5.03;;;27.90;99.90;;;;;;5046791;28;20680;-82
2022/08/28 10:30:24;;;;;;;4.68;4.13;;;28.40;99.90;;;;;;5038195;28;20796;-77
2022/08/28 10:33:17;;;;;;;4.28;3.97;;;28.50;99.90;;;;;;5038622;28;20191;-78
2022/08/28 10:35:52;;;;;;;4.30;3.97;;;28.50;99.90;;;;;;5037720;28;20303;-77
2022/08/28 10:38:28;;;;;;;6.32;4.30;;;28.50;99.90;;;;;;5037664;28;20230;-78
2022/08/28 10:41:02;;;;;;;3.95;3.65;;;28.50;99.90;;;;;;5042836;28;20223;-77
2022/08/28 10:43:34;;;;;;;4.10;3.80;;;28.60;99.90;;;;;;5039814;28;20198;-77
2022/08/28 10:46:05;;;;;;;5.03;3.78;;;28.70;99.90;;;;;;5038090;28;20284;-76
2022/08/28 10:48:39;;;;;;;3.80;3.53;;;28.60;99.90;;;;;;5040383;28;20215;-77
2022/08/28 10:51:13;;;;;;;3.58;3.28;;;28.60;99.90;;;;;;5042183;28;20235;-77
2022/08/28 10:53:44;;;;;;;3.60;3.30;;;28.70;99.90;;;;;;5041691;28;20194;-77
2022/08/28 10:56:17;;;;;;;3.17;2.90;;;28.70;99.90;;;;;;5044232;28;20215;-78
2022/08/28 10:58:46;;;;;;;3.42;3.13;;;28.70;99.90;;;;;;5043825;28;20253;-77
2022/08/28 11:01:19;;;;;;;3.85;3.55;;;28.60;99.90;;;;;;5036037;28;20625;-76
2022/08/28 11:03:50;;;;;;;3.60;3.30;;;28.70;99.90;;;;;;5037038;28;20211;-78
2022/08/28 11:06:26;;;;;;;3.53;3.33;;;28.70;99.90;;;;;;5030925;28;20239;-77
2022/08/28 11:08:56;;;;;;;3.03;2.83;;;28.80;99.90;;;;;;5036264;28;20234;-74
2022/08/28 11:11:47;;;;;;;3.33;3.03;;;28.80;99.90;;;;;;5039292;28;20219;-76
2022/08/28 11:14:24;;;;;;;3.15;2.95;;;28.80;99.90;;;;;;5033725;28;20210;-79
2022/08/28 11:16:54;;;;;;;3.13;2.85;;;29.10;99.90;;;;;;5031694;28;20204;-76
2022/08/28 11:19:54;;;;;;;2.67;2.47;;;29.00;99.90;;;;;;5038783;28;20206;-73
2022/08/28 11:22:24;;;;;;;3.20;3.00;;;29.30;99.90;;;;;;5027195;28;20202;-75
2022/08/28 11:24:59;;;;;;;2.90;2.70;;;29.40;99.90;;;;;;5033221;28;20931;-79
2022/08/28 11:27:32;;;;;;;2.78;2.58;;;29.40;99.90;;;;;;5031697;28;20261;-78
2022/08/28 11:30:30;;;;;;;2.92;2.72;;;29.30;99.90;;;;;;5032394;28;20226;-77
2022/08/28 11:33:09;;;;;;;4.00;3.10;;;29.30;99.90;;;;;;5031402;28;20203;-78
2022/08/28 11:35:49;;;;;;;3.03;2.83;;;29.30;99.90;;;;;;5031060;28;20215;-77
2022/08/28 11:39:12;;;;;;;2.70;2.50;;;29.30;99.90;;;;;;5031976;28;20214;-80
2022/08/28 11:42:09;;;;;;;2.47;2.38;;;29.50;99.90;;;;;;4951266;28;20226;-77
2022/08/28 11:44:44;;;;;;;2.30;2.20;;;29.40;99.90;;;;;;5035540;28;20215;-76
2022/08/28 11:47:42;;;;;;;2.60;2.40;;;29.30;99.90;;;;;;5032767;28;20203;-77
2022/08/28 11:50:21;;;;;;;2.65;2.42;;;29.30;99.90;;;;;;4984583;28;20242;-78
2022/08/28 11:53:23;;;;;;;2.50;2.30;;;29.30;99.90;;;;;;5039137;28;20215;-79
2022/08/28 11:56:13;;;;;;;2.30;2.10;;;29.50;99.90;;;;;;5037541;28;20222;-78
2022/08/28 11:58:47;;;;;;;3.25;2.92;;;29.90;99.90;;;;;;5036917;28;20203;-79
2022/08/28 12:01:28;;;;;;;3.03;2.83;;;30.20;99.90;;;;;;5033048;28;20223;-74
2022/08/28 12:03:58;;;;;;;3.30;3.08;;;30.10;99.90;;;;;;5033314;28;20626;-77
2022/08/28 12:06:46;;;;;;;3.25;3.00;;;30.00;99.90;;;;;;5036493;28;20262;-76
2022/08/28 12:09:51;;;;;;;3.90;3.63;;;30.00;99.90;;;;;;5033745;28;20218;-74
2022/08/28 12:12:53;;;;;;;3.42;3.13;;;30.30;99.90;;;;;;5031949;28;20225;-75
2022/08/28 12:15:42;;;;;;;3.10;2.90;;;30.50;99.90;;;;;;5033094;28;20313;-75
2022/08/28 12:18:50;;;;;;;2.80;2.60;;;30.80;99.90;;;;;;5030676;28;20203;-75
2022/08/28 12:21:20;;;;;;;3.13;2.92;;;30.70;99.90;;;;;;5028002;28;20215;-77
2022/08/28 12:24:00;;;;;;;3.10;2.88;;;30.70;99.90;;;;;;5038500;28;20201;-78
2022/08/28 12:26:30;;;;;;;2.92;2.72;;;30.60;99.90;;;;;;5038257;28;20246;-78
2022/08/28 12:29:00;;;;;;;3.30;3.00;;;30.50;99.90;;;;;;5039873;28;20653;-78
2022/08/28 12:32:12;;;;;;;3.45;3.15;;;30.40;99.90;;;;;;5035339;28;20219;-78
2022/08/28 12:35:15;;;;;;;3.42;3.13;;;30.50;99.90;;;;;;5034619;28;20763;-78
2022/08/28 12:37:46;;;;;;;3.17;2.90;;;30.50;99.90;;;;;;5031312;28;20207;-76
2022/08/28 12:40:17;;;;;;;2.78;2.58;;;30.80;99.90;;;;;;5034023;28;20230;-76
2022/08/28 12:42:50;;;;;;;3.10;2.50;;;30.90;99.90;;;;;;5039308;28;20188;-78
2022/08/28 12:45:22;;;;;;;2.85;2.65;;;31.10;99.90;;;;;;5037745;28;20226;-77
2022/08/28 12:47:52;;;;;;;3.33;3.13;;;31.10;99.90;;;;;;5036748;28;20199;-75
2022/08/28 12:50:26;;;;;;;2.38;2.28;;;31.20;99.90;;;;;;5038553;28;20227;-74
2022/08/28 12:52:56;;;;;;;2.40;2.22;;;31.20;99.90;;;;;;5039875;28;20241;-78
2022/08/28 12:55:28;;;;;;;2.75;2.55;;;31.40;99.90;;;;;;5035364;28;20226;-74
2022/08/28 12:58:00;;;;;;;2.58;2.38;;;31.40;99.90;;;;;;5039133;28;20716;-76
2022/08/28 13:00:32;;;;;;;2.22;2.13;;;31.30;99.90;;;;;;5031177;28;20281;-75
2022/08/28 13:03:00;;;;;;;2.15;1.98;;;31.40;99.90;;;;;;5032528;28;20279;-76
2022/08/28 13:05:30;;;;;;;2.45;2.20;;;31.40;99.90;;;;;;5034225;28;20292;-75
2022/08/28 13:08:11;;;;;;;2.55;2.15;;;31.30;99.90;;;;;;5037491;28;20197;-75
2022/08/28 13:10:48;;;;;;;2.45;2.25;;;31.20;99.90;;;;;;5038120;28;20582;-76
2022/08/28 13:13:22;;;;;;;2.85;2.60;;;31.20;99.90;;;;;;5036578;28;20202;-76
2022/08/28 13:15:56;;;;;;;2.30;2.10;;;31.10;99.90;;;;;;5037127;28;20239;-76